createdAt,value
2023-05-19T00:00:57.889Z,63.26
2023-05-19T00:03:25.182Z,63.93
2023-05-19T00:05:53.917Z,64.61
2023-05-19T00:08:22.607Z,64.48
2023-05-19T00:10:49.319Z,64.51
2023-05-19T00:13:15.991Z,64.28
2023-05-19T00:15:42.669Z,64.03
2023-05-19T00:18:10.017Z,64.10
2023-05-19T00:20:38.002Z,63.73
2023-05-19T00:23:04.516Z,63.34
2023-05-19T00:25:30.990Z,63.61
2023-05-19T00:27:59.176Z,64.82
2023-05-19T00:30:26.063Z,64.65
2023-05-19T00:32:52.668Z,64.43
2023-05-19T00:35:20.019Z,64.22
2023-05-19T00:37:46.707Z,64.09
2023-05-19T00:40:14.136Z,64.30
2023-05-19T00:42:41.322Z,64.18
2023-05-19T00:45:08.685Z,63.90
2023-05-19T00:47:35.253Z,63.87
2023-05-19T00:50:01.900Z,64.03
2023-05-19T00:52:28.482Z,64.40
2023-05-19T00:54:55.664Z,63.99
2023-05-19T00:57:22.512Z,64.66
2023-05-19T00:59:49.139Z,64.18
2023-05-19T01:02:15.758Z,64.16
2023-05-19T01:04:44.772Z,63.75
2023-05-19T01:07:12.465Z,63.98
2023-05-19T01:09:40.654Z,64.15
2023-05-19T01:12:08.824Z,64.74
2023-05-19T01:14:35.776Z,64.74
2023-05-19T01:17:28.541Z,64.69
2023-05-19T01:20:11.116Z,64.71
2023-05-19T01:22:59.479Z,64.43
2023-05-19T01:25:50.717Z,63.83
2023-05-19T01:28:37.072Z,64.01
2023-05-19T01:31:07.404Z,64.07
2023-05-19T01:33:34.836Z,64.21
2023-05-19T01:36:03.506Z,64.56
2023-05-19T01:38:33.800Z,64.91
2023-05-19T01:41:03.783Z,65.31
2023-05-19T01:43:31.149Z,64.54
2023-05-19T01:45:58.899Z,64.34
2023-05-19T01:48:26.884Z,64.00
2023-05-19T01:50:53.458Z,64.46
2023-05-19T01:53:19.928Z,63.77
2023-05-19T01:55:49.677Z,64.10
2023-05-19T01:58:40.901Z,63.74
2023-05-19T02:01:13.356Z,64.33
2023-05-19T02:03:46.543Z,65.13
2023-05-19T02:06:32.710Z,64.75
2023-05-19T02:09:16.220Z,64.71
2023-05-19T02:12:01.053Z,65.00
2023-05-19T02:14:35.436Z,65.31
2023-05-19T02:17:04.815Z,64.75
2023-05-19T02:19:33.716Z,64.38
2023-05-19T02:22:00.484Z,64.88
2023-05-19T02:24:26.975Z,65.18
2023-05-19T02:26:54.254Z,65.62
2023-05-19T02:29:21.218Z,65.63
2023-05-19T02:31:48.154Z,65.38
2023-05-19T02:34:14.683Z,65.32
2023-05-19T02:36:43.112Z,65.60
2023-05-19T02:39:10.987Z,65.66
2023-05-19T02:41:38.367Z,65.96
2023-05-19T02:44:05.242Z,66.26
2023-05-19T02:46:32.412Z,66.14
2023-05-19T02:48:59.391Z,66.93
2023-05-19T02:51:25.845Z,66.73
2023-05-19T02:53:52.334Z,67.53
2023-05-19T02:56:18.835Z,67.20
2023-05-19T02:58:45.389Z,67.33
2023-05-19T03:01:13.064Z,67.33
2023-05-19T03:03:39.680Z,67.58
2023-05-19T03:06:08.738Z,67.37
2023-05-19T03:08:36.211Z,67.46
2023-05-19T03:11:03.457Z,67.27
2023-05-19T03:13:30.215Z,67.67
2023-05-19T03:15:58.754Z,67.85
2023-05-19T03:18:28.217Z,68.18
2023-05-19T03:20:54.738Z,68.17
2023-05-19T03:23:22.396Z,67.82
2023-05-19T03:25:48.894Z,67.68
2023-05-19T03:28:15.711Z,67.49
2023-05-19T03:30:42.229Z,67.54
2023-05-19T03:33:13.212Z,67.27
2023-05-19T03:35:40.879Z,67.43
2023-05-19T03:38:07.981Z,67.67
2023-05-19T03:40:35.037Z,67.89
2023-05-19T03:43:05.554Z,67.70
2023-05-19T03:45:36.896Z,67.29
2023-05-19T03:48:20.383Z,67.26
2023-05-19T03:51:06.097Z,67.51
2023-05-19T03:53:32.930Z,66.99
2023-05-19T03:56:00.593Z,67.62
2023-05-19T03:58:27.108Z,67.55
2023-05-19T04:00:53.640Z,67.72
2023-05-19T04:03:20.199Z,67.94
2023-05-19T04:05:46.817Z,67.03
2023-05-19T04:08:14.724Z,67.02
2023-05-19T04:10:41.267Z,66.99
2023-05-19T04:13:07.731Z,67.05
2023-05-19T04:15:34.337Z,67.78
2023-05-19T04:18:00.939Z,67.47
2023-05-19T04:20:27.524Z,66.89
2023-05-19T04:22:54.005Z,67.29
2023-05-19T04:25:20.507Z,67.62
2023-05-19T04:27:48.324Z,67.20
2023-05-19T04:30:22.026Z,67.20
2023-05-19T04:32:52.139Z,66.86
2023-05-19T04:35:19.427Z,67.08
2023-05-19T04:37:46.840Z,67.03
2023-05-19T04:40:15.576Z,66.97
2023-05-19T04:42:42.746Z,66.92
2023-05-19T04:45:12.213Z,66.81
2023-05-19T04:47:42.419Z,66.72
2023-05-19T04:50:11.131Z,67.22
2023-05-19T04:52:37.730Z,66.71
2023-05-19T04:55:06.056Z,66.68
2023-05-19T04:57:32.611Z,66.35
2023-05-19T05:00:02.243Z,66.48
2023-05-19T05:02:37.055Z,66.18
2023-05-19T05:05:04.299Z,66.59
2023-05-19T05:07:32.519Z,66.56
2023-05-19T05:09:59.680Z,66.61
2023-05-19T05:12:27.009Z,66.85
2023-05-19T05:14:53.868Z,66.27
2023-05-19T05:17:20.605Z,66.14
2023-05-19T05:19:48.430Z,65.53
2023-05-19T05:22:15.515Z,65.65
2023-05-19T05:24:42.302Z,66.05
2023-05-19T05:27:10.071Z,66.00
2023-05-19T05:29:37.057Z,65.41
2023-05-19T05:32:05.818Z,65.07
2023-05-19T05:34:33.208Z,65.56
2023-05-19T05:36:59.722Z,65.49
2023-05-19T05:39:27.947Z,65.65
2023-05-19T05:41:54.881Z,65.63
2023-05-19T05:44:22.291Z,65.81
2023-05-19T05:46:50.274Z,65.38
2023-05-19T05:49:17.568Z,65.59
2023-05-19T05:51:54.585Z,65.59
2023-05-19T05:54:32.695Z,64.79
2023-05-19T05:56:59.555Z,64.72
2023-05-19T05:59:26.407Z,64.22
2023-05-19T06:01:52.910Z,65.39
2023-05-19T06:04:21.191Z,63.45
2023-05-19T06:06:47.867Z,64.18
2023-05-19T06:09:19.433Z,64.92
2023-05-19T06:11:46.144Z,64.31
2023-05-19T06:14:12.692Z,64.36
2023-05-19T06:16:53.731Z,64.57
2023-05-19T06:19:21.467Z,63.81
2023-05-19T06:21:48.057Z,62.61
2023-05-19T06:24:15.122Z,63.81
2023-05-19T06:26:41.793Z,64.07
2023-05-19T06:29:08.378Z,63.06
2023-05-19T06:31:35.011Z,63.57
2023-05-19T06:34:12.375Z,63.26
2023-05-19T06:36:41.261Z,62.74
2023-05-19T06:39:08.233Z,63.08
2023-05-19T06:41:35.501Z,62.11
2023-05-19T06:44:01.998Z,62.73
2023-05-19T06:46:32.195Z,62.36
2023-05-19T06:48:58.694Z,62.79
2023-05-19T06:51:27.321Z,63.00
2023-05-19T06:53:56.266Z,62.59
2023-05-19T06:56:23.758Z,61.55
2023-05-19T06:58:51.146Z,61.97
2023-05-19T07:01:20.302Z,62.48
2023-05-19T07:03:53.240Z,62.48
2023-05-19T07:06:20.428Z,62.84
2023-05-19T07:08:47.364Z,63.00
2023-05-19T07:11:14.289Z,61.83
2023-05-19T07:13:41.771Z,62.15
2023-05-19T07:16:08.880Z,62.17
2023-05-19T07:18:35.737Z,62.09
2023-05-19T07:21:02.271Z,62.38
2023-05-19T07:23:28.873Z,61.86
2023-05-19T07:25:56.430Z,61.99
2023-05-19T07:28:23.093Z,61.64
2023-05-19T07:30:49.872Z,61.87
2023-05-19T07:33:16.436Z,61.27
2023-05-19T07:35:44.405Z,60.94
2023-05-19T07:38:10.867Z,61.80
2023-05-19T07:40:37.503Z,62.08
2023-05-19T07:43:04.015Z,61.17
2023-05-19T07:45:30.606Z,61.28
2023-05-19T07:47:57.273Z,61.80
2023-05-19T07:50:23.796Z,62.16
2023-05-19T07:52:50.309Z,61.96
2023-05-19T07:55:17.861Z,61.10
2023-05-19T07:57:44.357Z,61.22
2023-05-19T08:00:12.495Z,61.16
2023-05-19T08:02:39.007Z,60.82
2023-05-19T08:05:06.041Z,60.85
2023-05-19T08:07:32.981Z,59.95
2023-05-19T08:09:59.431Z,60.14
2023-05-19T08:12:26.037Z,60.15
2023-05-19T08:14:52.665Z,59.52
2023-05-19T08:17:19.203Z,58.59
2023-05-19T08:19:45.866Z,58.50
2023-05-19T08:22:12.349Z,57.42
2023-05-19T08:24:39.293Z,57.30
2023-05-19T08:27:06.721Z,57.73
2023-05-19T08:29:33.225Z,57.74
2023-05-19T08:32:00.307Z,56.54
2023-05-19T08:34:26.804Z,58.07
2023-05-19T08:36:53.517Z,57.12
2023-05-19T08:39:24.185Z,57.06
2023-05-19T08:41:50.680Z,58.96
2023-05-19T08:44:18.988Z,57.54
2023-05-19T08:46:47.720Z,58.04
2023-05-19T08:49:16.633Z,56.46
2023-05-19T08:51:52.201Z,56.62
2023-05-19T08:54:20.610Z,56.88
2023-05-19T08:56:47.200Z,56.77
2023-05-19T08:59:15.118Z,55.77
2023-05-19T09:01:45.853Z,55.68
2023-05-19T09:04:13.214Z,54.94
2023-05-19T09:06:44.507Z,53.34
2023-05-19T09:09:11.521Z,53.16
2023-05-19T09:11:38.031Z,54.43
2023-05-19T09:14:05.308Z,53.85
2023-05-19T09:16:33.758Z,52.58
2023-05-19T09:19:01.152Z,53.10
2023-05-19T09:21:32.196Z,51.37
2023-05-19T09:24:04.338Z,52.54
2023-05-19T09:26:38.348Z,53.18
2023-05-19T09:29:15.898Z,53.58
2023-05-19T09:31:49.183Z,52.93
2023-05-19T09:34:15.864Z,52.55
2023-05-19T09:36:42.684Z,53.66
2023-05-19T09:39:19.377Z,53.14
2023-05-19T09:41:46.463Z,51.71
2023-05-19T09:44:23.606Z,52.87
2023-05-19T09:46:51.559Z,51.36
2023-05-19T09:49:22.688Z,52.37
2023-05-19T09:51:56.733Z,53.86
2023-05-19T09:54:24.506Z,53.93
2023-05-19T09:56:58.931Z,52.59
2023-05-19T09:59:26.224Z,52.94
2023-05-19T10:01:57.854Z,53.42
2023-05-19T10:04:29.397Z,52.75
2023-05-19T10:06:59.677Z,53.51
2023-05-19T10:09:28.384Z,52.58
2023-05-19T10:11:57.406Z,52.44
2023-05-19T10:14:28.302Z,52.76
2023-05-19T10:16:57.047Z,51.93
2023-05-19T10:19:25.383Z,52.83
2023-05-19T10:21:52.754Z,51.53
2023-05-19T10:24:19.734Z,53.62
2023-05-19T10:27:01.013Z,51.68
2023-05-19T10:29:30.583Z,52.04
2023-05-19T10:32:01.158Z,50.14
2023-05-19T10:34:53.422Z,49.96
2023-05-19T10:37:37.743Z,51.86
2023-05-19T10:40:13.668Z,51.63
2023-05-19T10:42:46.339Z,49.65
2023-05-19T10:45:20.936Z,49.86
2023-05-19T10:47:47.427Z,50.56
2023-05-19T10:50:14.026Z,50.40
2023-05-19T10:52:40.883Z,51.54
2023-05-19T10:55:08.772Z,49.50
2023-05-19T10:57:35.560Z,51.16
2023-05-19T11:00:11.538Z,50.75
2023-05-19T11:02:42.856Z,51.23
2023-05-19T11:05:14.951Z,51.39
2023-05-19T11:07:43.578Z,52.38
2023-05-19T11:10:10.836Z,52.84
2023-05-19T11:12:42.942Z,52.66
2023-05-19T11:15:14.524Z,53.08
2023-05-19T11:17:42.452Z,53.07
2023-05-19T11:20:19.857Z,51.84
2023-05-19T11:23:01.945Z,52.05
2023-05-19T11:25:41.745Z,51.59
2023-05-19T11:28:10.488Z,51.56
2023-05-19T11:30:37.402Z,52.30
2023-05-19T11:33:05.904Z,50.95
2023-05-19T11:35:36.018Z,50.41
2023-05-19T11:38:03.333Z,50.92
2023-05-19T11:40:30.539Z,49.63
2023-05-19T11:42:57.012Z,49.72
2023-05-19T11:45:27.381Z,50.29
2023-05-19T11:48:02.434Z,51.28
2023-05-19T11:50:31.296Z,50.42
2023-05-19T11:53:00.219Z,51.38
2023-05-19T11:55:27.083Z,51.84
2023-05-19T11:58:05.793Z,52.24
2023-05-19T12:00:41.539Z,50.57
2023-05-19T12:03:09.291Z,50.28
2023-05-19T12:05:44.754Z,51.63
2023-05-19T12:08:12.398Z,52.54
2023-05-19T12:10:39.765Z,52.91
2023-05-19T12:13:09.488Z,53.00
2023-05-19T12:15:36.702Z,53.84
2023-05-19T12:18:03.849Z,53.69
2023-05-19T12:20:32.438Z,53.95
2023-05-19T12:23:00.653Z,53.98
2023-05-19T12:25:28.834Z,55.12
2023-05-19T12:27:59.848Z,55.16
2023-05-19T12:30:29.007Z,55.31
2023-05-19T12:32:59.274Z,54.90
2023-05-19T12:35:27.949Z,54.24
2023-05-19T12:37:54.850Z,54.91
2023-05-19T12:40:21.574Z,54.67
2023-05-19T12:42:52.257Z,54.96
2023-05-19T12:45:21.806Z,55.41
2023-05-19T12:47:49.152Z,55.93
2023-05-19T12:50:16.167Z,54.63
2023-05-19T12:52:53.398Z,54.50
2023-05-19T12:55:20.940Z,56.22
2023-05-19T12:57:54.637Z,56.18
2023-05-19T13:00:22.834Z,55.61
2023-05-19T13:03:06.645Z,56.02
2023-05-19T13:05:34.291Z,56.43
2023-05-19T13:08:04.584Z,57.44
2023-05-19T13:10:31.533Z,57.81
2023-05-19T13:13:00.357Z,57.00
2023-05-19T13:15:34.218Z,57.66
2023-05-19T13:18:03.577Z,57.03
2023-05-19T13:20:30.724Z,55.64
2023-05-19T13:22:57.512Z,55.60
2023-05-19T13:25:24.210Z,54.98
2023-05-19T13:27:51.111Z,55.03
2023-05-19T13:30:18.572Z,56.14
2023-05-19T13:32:46.073Z,56.49
2023-05-19T13:35:14.653Z,55.68
2023-05-19T13:37:44.622Z,55.42
2023-05-19T13:40:11.895Z,56.45
2023-05-19T13:42:38.506Z,56.42
2023-05-19T13:45:05.852Z,55.64
2023-05-19T13:47:32.809Z,56.35
2023-05-19T13:49:59.561Z,55.94
2023-05-19T13:52:27.550Z,56.56
2023-05-19T13:54:56.650Z,57.14
2023-05-19T13:57:26.491Z,57.42
2023-05-19T14:00:02.498Z,55.61
2023-05-19T14:02:39.301Z,56.46
2023-05-19T14:05:07.286Z,55.16
2023-05-19T14:07:35.105Z,55.93
2023-05-19T14:10:02.888Z,56.55
2023-05-19T14:12:38.049Z,56.15
2023-05-19T14:15:11.599Z,55.04
2023-05-19T14:17:38.448Z,56.16
2023-05-19T14:20:05.623Z,56.29
2023-05-19T14:22:32.265Z,55.49
2023-05-19T14:25:00.307Z,54.43
2023-05-19T14:27:26.826Z,55.32
2023-05-19T14:29:53.323Z,54.70
2023-05-19T14:32:20.207Z,54.51
2023-05-19T14:34:46.886Z,55.16
2023-05-19T14:37:13.376Z,54.82
2023-05-19T14:39:39.842Z,54.57
2023-05-19T14:42:06.409Z,54.50
2023-05-19T14:44:33.022Z,54.71
2023-05-19T14:47:01.204Z,54.53
2023-05-19T14:49:27.725Z,54.80
2023-05-19T14:51:54.322Z,54.28
2023-05-19T14:54:20.792Z,54.27
2023-05-19T14:56:47.275Z,54.45
2023-05-19T14:59:13.743Z,53.81
2023-05-19T15:01:40.380Z,54.27
2023-05-19T15:04:06.952Z,54.79
2023-05-19T15:06:33.559Z,54.80
2023-05-19T15:09:00.070Z,54.47
2023-05-19T15:11:26.541Z,53.80
2023-05-19T15:13:53.121Z,54.10
2023-05-19T15:16:19.579Z,53.33
2023-05-19T15:18:46.200Z,54.19
2023-05-19T15:21:12.845Z,54.24
2023-05-19T15:23:39.393Z,54.24
2023-05-19T15:26:05.876Z,53.75
2023-05-19T15:28:32.417Z,54.61
2023-05-19T15:30:59.060Z,54.83
2023-05-19T15:33:25.711Z,54.34
2023-05-19T15:35:52.338Z,54.44
2023-05-19T15:38:21.667Z,54.80
2023-05-19T15:40:48.207Z,54.66
2023-05-19T15:43:14.727Z,54.72
2023-05-19T15:45:41.330Z,55.16
2023-05-19T15:48:08.298Z,55.41
2023-05-19T15:50:35.334Z,55.30
2023-05-19T15:53:02.216Z,56.18
2023-05-19T15:55:28.770Z,55.22
2023-05-19T15:57:55.194Z,55.48
2023-05-19T16:00:21.683Z,54.88
2023-05-19T16:02:48.264Z,55.21
2023-05-19T16:05:14.851Z,55.51
2023-05-19T16:07:42.087Z,55.13
2023-05-19T16:10:09.136Z,54.48
2023-05-19T16:12:36.477Z,55.69
2023-05-19T16:15:03.292Z,55.60
2023-05-19T16:17:29.898Z,55.18
2023-05-19T16:19:56.564Z,54.68
2023-05-19T16:22:24.679Z,55.12
2023-05-19T16:24:51.903Z,56.49
2023-05-19T16:27:18.618Z,56.16
2023-05-19T16:29:45.087Z,55.50
2023-05-19T16:32:11.648Z,56.68
2023-05-19T16:34:38.198Z,57.13
2023-05-19T16:37:04.881Z,56.61
2023-05-19T16:39:31.462Z,56.96
2023-05-19T16:41:57.930Z,57.50
2023-05-19T16:44:25.587Z,58.29
2023-05-19T16:46:52.054Z,58.43
2023-05-19T16:49:18.635Z,58.58
2023-05-19T16:51:46.743Z,58.40
2023-05-19T16:54:13.949Z,58.14
2023-05-19T16:56:40.405Z,57.67
2023-05-19T16:59:08.652Z,58.51
2023-05-19T17:01:35.131Z,58.06
2023-05-19T17:04:01.607Z,58.59
2023-05-19T17:06:28.211Z,58.19
2023-05-19T17:08:54.671Z,58.50
2023-05-19T17:11:21.472Z,58.72
2023-05-19T17:13:47.912Z,58.97
2023-05-19T17:16:14.665Z,59.06
2023-05-19T17:18:41.255Z,58.99
2023-05-19T17:21:07.790Z,58.82
2023-05-19T17:23:34.253Z,59.63
2023-05-19T17:26:01.745Z,59.41
2023-05-19T17:28:28.367Z,59.74
2023-05-19T17:30:54.914Z,58.79
2023-05-19T17:33:21.432Z,59.52
2023-05-19T17:35:47.998Z,59.58
2023-05-19T17:38:14.542Z,59.42
2023-05-19T17:40:42.205Z,59.71
2023-05-19T17:43:08.860Z,60.01
2023-05-19T17:45:35.519Z,60.27
2023-05-19T17:48:02.249Z,59.46
2023-05-19T17:50:28.815Z,60.33
2023-05-19T17:52:56.100Z,60.24
2023-05-19T17:55:27.860Z,60.40
2023-05-19T17:57:54.554Z,59.83
2023-05-19T18:00:21.519Z,60.65
2023-05-19T18:02:48.365Z,60.63
2023-05-19T18:05:15.535Z,60.67
2023-05-19T18:07:42.401Z,60.77
2023-05-19T18:10:09.667Z,61.10
2023-05-19T18:12:36.182Z,61.17
2023-05-19T18:15:03.285Z,61.09
2023-05-19T18:17:29.821Z,61.33
2023-05-19T18:19:56.289Z,61.07
2023-05-19T18:22:22.848Z,61.76
2023-05-19T18:24:49.330Z,61.43
2023-05-19T18:27:15.816Z,61.55
2023-05-19T18:29:42.347Z,61.76
2023-05-19T18:32:09.157Z,61.69
2023-05-19T18:34:35.824Z,61.81
2023-05-19T18:37:02.368Z,61.82
2023-05-19T18:39:29.415Z,61.64
2023-05-19T18:41:56.053Z,61.95
2023-05-19T18:44:22.586Z,62.26
2023-05-19T18:46:49.137Z,62.31
2023-05-19T18:49:15.736Z,61.86
2023-05-19T18:51:42.523Z,61.74
2023-05-19T18:54:09.119Z,62.90
2023-05-19T18:56:35.929Z,63.15
2023-05-19T18:59:02.604Z,63.25
2023-05-19T19:01:29.563Z,63.09
2023-05-19T19:03:56.256Z,62.96
2023-05-19T19:06:23.343Z,63.27
2023-05-19T19:08:50.079Z,62.99
2023-05-19T19:11:16.579Z,63.21
2023-05-19T19:13:43.620Z,63.28
2023-05-19T19:16:10.646Z,62.88
2023-05-19T19:18:37.281Z,63.36
2023-05-19T19:21:05.568Z,63.67
2023-05-19T19:23:32.567Z,63.67
2023-05-19T19:25:59.163Z,63.44
2023-05-19T19:28:25.856Z,63.83
2023-05-19T19:30:52.435Z,64.20
2023-05-19T19:33:19.091Z,64.01
2023-05-19T19:35:48.396Z,64.18
2023-05-19T19:38:14.958Z,64.43
2023-05-19T19:40:41.508Z,64.45
2023-05-19T19:43:07.971Z,64.81
2023-05-19T19:45:34.881Z,64.56
2023-05-19T19:48:01.785Z,65.12
2023-05-19T19:50:28.372Z,64.89
2023-05-19T19:52:54.862Z,64.96
2023-05-19T19:55:21.594Z,65.18
2023-05-19T19:57:49.395Z,65.38
2023-05-19T20:00:16.557Z,65.14
2023-05-19T20:02:55.677Z,65.26
2023-05-19T20:05:29.766Z,65.36
2023-05-19T20:07:56.323Z,65.72
2023-05-19T20:10:22.816Z,65.17
2023-05-19T20:12:50.432Z,65.12
2023-05-19T20:15:17.045Z,65.23
2023-05-19T20:17:43.588Z,65.46
2023-05-19T20:20:11.726Z,65.44
2023-05-19T20:22:39.103Z,65.16
2023-05-19T20:25:06.352Z,65.33
2023-05-19T20:27:32.838Z,65.16
2023-05-19T20:29:59.320Z,65.53
2023-05-19T20:32:25.869Z,65.67
2023-05-19T20:34:52.496Z,65.43
2023-05-19T20:37:18.944Z,65.71
2023-05-19T20:39:45.418Z,65.25
2023-05-19T20:42:12.297Z,65.59
2023-05-19T20:44:38.819Z,65.90
2023-05-19T20:47:08.034Z,65.92
2023-05-19T20:49:34.967Z,65.93
2023-05-19T20:52:01.565Z,66.27
2023-05-19T20:54:28.067Z,65.77
2023-05-19T20:56:54.717Z,66.13
2023-05-19T20:59:21.359Z,65.86
2023-05-19T21:01:48.058Z,66.43
2023-05-19T21:04:14.550Z,66.43
2023-05-19T21:06:41.134Z,67.15
2023-05-19T21:09:07.758Z,66.71
2023-05-19T21:11:34.627Z,66.92
2023-05-19T21:14:03.991Z,67.11
2023-05-19T21:16:31.182Z,66.66
2023-05-19T21:18:57.801Z,66.68
2023-05-19T21:21:24.366Z,66.92
2023-05-19T21:23:50.834Z,66.93
2023-05-19T21:26:17.672Z,67.40
2023-05-19T21:28:44.211Z,67.32
2023-05-19T21:31:10.966Z,67.31
2023-05-19T21:33:37.545Z,67.74
2023-05-19T21:36:04.360Z,67.30
2023-05-19T21:38:30.864Z,67.28
2023-05-19T21:40:57.377Z,67.16
2023-05-19T21:43:23.895Z,66.88
2023-05-19T21:45:50.446Z,66.89
2023-05-19T21:48:17.023Z,66.70
2023-05-19T21:50:43.507Z,66.88
2023-05-19T21:53:09.979Z,66.85
2023-05-19T21:55:36.461Z,66.59
2023-05-19T21:58:03.088Z,66.43
2023-05-19T22:00:29.699Z,66.61
2023-05-19T22:02:56.639Z,67.13
2023-05-19T22:05:23.178Z,66.89
2023-05-19T22:07:49.672Z,66.95
2023-05-19T22:10:16.462Z,67.23
2023-05-19T22:12:42.942Z,67.15
2023-05-19T22:15:10.246Z,67.39
2023-05-19T22:17:36.794Z,67.50
2023-05-19T22:20:03.614Z,67.30
2023-05-19T22:22:30.091Z,66.86
2023-05-19T22:24:56.674Z,67.24
2023-05-19T22:27:23.149Z,67.80
2023-05-19T22:29:49.654Z,67.57
2023-05-19T22:32:18.232Z,67.61
2023-05-19T22:34:45.083Z,67.26
2023-05-19T22:37:11.928Z,67.65
2023-05-19T22:39:39.047Z,67.65
2023-05-19T22:42:05.842Z,67.92
2023-05-19T22:44:32.342Z,67.72
2023-05-19T22:46:58.819Z,68.17
2023-05-19T22:49:26.156Z,68.76
2023-05-19T22:51:52.765Z,68.65
2023-05-19T22:54:19.286Z,68.89
2023-05-19T22:56:48.348Z,68.40
2023-05-19T22:59:17.589Z,68.54
2023-05-19T23:01:46.473Z,68.81
2023-05-19T23:04:13.500Z,68.83
2023-05-19T23:06:40.091Z,69.13
2023-05-19T23:09:06.597Z,68.77
2023-05-19T23:11:33.149Z,68.26
2023-05-19T23:13:59.708Z,68.74
2023-05-19T23:16:26.181Z,68.23
2023-05-19T23:18:52.776Z,68.72
2023-05-19T23:21:19.330Z,68.85
2023-05-19T23:23:45.813Z,69.15
2023-05-19T23:26:13.407Z,68.91
2023-05-19T23:28:42.126Z,68.83
2023-05-19T23:31:08.749Z,68.65
2023-05-19T23:33:35.427Z,67.92
2023-05-19T23:36:07.546Z,68.11
2023-05-19T23:38:34.497Z,67.81
2023-05-19T23:41:00.993Z,67.81
2023-05-19T23:43:27.479Z,68.08
2023-05-19T23:45:53.957Z,68.28
2023-05-19T23:48:20.836Z,68.56
2023-05-19T23:50:47.307Z,68.53
2023-05-19T23:53:13.877Z,67.89
2023-05-19T23:55:40.680Z,67.38
2023-05-19T23:58:07.250Z,68.33
